createdAt,value
2019-03-23T00:00:14.345Z,16.25
2019-03-23T00:03:22.636Z,15.93
2019-03-23T00:06:30.761Z,14.68
2019-03-23T00:09:27.636Z,17.02
2019-03-23T00:12:31.238Z,15.30
2019-03-23T00:15:40.978Z,16.12
2019-03-23T00:18:09.836Z,18.50
2019-03-23T00:20:42.151Z,17.05
2019-03-23T00:23:14.497Z,15.78
2019-03-23T00:25:46.982Z,15.53
2019-03-23T00:28:18.091Z,15.70
2019-03-23T00:30:51.559Z,14.70
2019-03-23T00:33:25.831Z,14.65
2019-03-23T00:36:26.551Z,14.85
2019-03-23T00:38:56.686Z,13.35
2019-03-23T00:41:27.925Z,15.23
2019-03-23T00:44:01.529Z,16.17
2019-03-23T00:46:33.407Z,13.95
2019-03-23T00:49:09.744Z,13.93
2019-03-23T00:57:20.044Z,14.87
2019-03-23T00:59:52.451Z,15.90
2019-03-23T01:02:25.072Z,16.30
2019-03-23T01:04:58.732Z,14.60
2019-03-23T01:07:29.778Z,16.30
2019-03-23T01:10:01.751Z,17.07
2019-03-23T01:12:34.933Z,17.07
2019-03-23T01:15:07.637Z,15.90
2019-03-23T01:17:42.206Z,14.18
2019-03-23T01:20:15.281Z,16.50
2019-03-23T01:22:46.415Z,15.60
2019-03-23T01:25:17.566Z,14.63
2019-03-23T01:27:51.461Z,15.28
2019-03-23T01:30:23.627Z,16.77
2019-03-23T01:32:54.397Z,15.00
2019-03-23T01:35:26.763Z,16.70
2019-03-23T01:37:57.464Z,17.15
2019-03-23T01:40:28.926Z,17.35
2019-03-23T01:43:06.144Z,17.32
2019-03-23T01:45:38.176Z,15.90
2019-03-23T01:48:10.624Z,14.47
2019-03-23T01:50:41.307Z,16.23
2019-03-23T01:53:16.227Z,16.27
2019-03-23T01:55:48.246Z,15.65
2019-03-23T01:58:19.512Z,14.13
2019-03-23T02:00:55.616Z,16.35
2019-03-23T02:03:28.827Z,15.05
2019-03-23T02:06:01.892Z,16.20
2019-03-23T02:08:37.604Z,18.10
2019-03-23T02:11:15.596Z,16.45
2019-03-23T02:13:53.679Z,17.55
2019-03-23T02:16:27.106Z,15.58
2019-03-23T02:18:58.164Z,15.98
2019-03-23T02:21:33.118Z,14.90
2019-03-23T02:24:04.872Z,16.52
2019-03-23T02:26:38.297Z,17.07
2019-03-23T02:29:13.100Z,17.98
2019-03-23T02:31:55.432Z,18.32
2019-03-23T02:34:28.771Z,15.93
2019-03-23T02:37:03.545Z,16.60
2019-03-23T02:39:34.637Z,15.78
2019-03-23T02:42:07.366Z,17.30
2019-03-23T02:44:40.027Z,16.12
2019-03-23T02:47:12.149Z,14.98
2019-03-23T02:49:44.002Z,16.95
2019-03-23T02:52:19.735Z,15.28
2019-03-23T02:54:50.449Z,15.08
2019-03-23T02:57:23.245Z,17.32
2019-03-23T02:59:56.711Z,18.67
2019-03-23T03:02:27.375Z,16.30
2019-03-23T03:04:59.141Z,15.72
2019-03-23T03:07:41.036Z,16.00
2019-03-23T03:10:05.298Z,15.90
2019-03-23T03:12:38.104Z,17.30
2019-03-23T03:15:10.855Z,16.70
2019-03-23T03:17:43.007Z,17.30
2019-03-23T03:20:15.394Z,17.00
2019-03-23T03:22:48.357Z,15.55
2019-03-23T03:25:21.599Z,16.95
2019-03-23T03:27:54.548Z,15.80
2019-03-23T03:30:27.486Z,16.60
2019-03-23T03:33:04.026Z,14.93
2019-03-23T03:35:36.866Z,17.57
2019-03-23T03:38:07.897Z,14.93
2019-03-23T03:40:42.376Z,15.45
2019-03-23T03:43:15.699Z,17.65
2019-03-23T03:45:47.210Z,15.30
2019-03-23T03:48:20.623Z,17.60
2019-03-23T03:50:53.311Z,17.45
2019-03-23T03:53:26.317Z,17.95
2019-03-23T03:56:01.903Z,14.65
2019-03-23T03:58:34.043Z,18.62
2019-03-23T04:01:05.624Z,16.02
2019-03-23T04:03:39.214Z,17.50
2019-03-23T04:06:09.900Z,17.12
2019-03-23T04:09:21.348Z,17.23
2019-03-23T04:12:30.248Z,16.52
2019-03-23T04:15:53.923Z,18.15
2019-03-23T04:19:15.748Z,16.20
2019-03-23T04:21:44.042Z,14.25
2019-03-23T04:24:15.646Z,16.97
2019-03-23T04:26:47.555Z,15.80
2019-03-23T04:29:20.742Z,17.02
2019-03-23T04:31:54.829Z,15.20
2019-03-23T04:34:29.477Z,16.75
2019-03-23T04:37:00.188Z,17.52
2019-03-23T04:39:31.069Z,17.27
2019-03-23T04:42:08.530Z,16.32
2019-03-23T04:44:39.170Z,16.60
2019-03-23T04:47:10.104Z,16.65
2019-03-23T04:50:16.572Z,16.90
2019-03-23T04:53:19.865Z,16.40
2019-03-23T04:55:50.900Z,17.27
2019-03-23T04:58:23.425Z,16.25
2019-03-23T05:00:54.082Z,16.20
2019-03-23T05:03:25.056Z,16.45
2019-03-23T05:05:57.897Z,15.68
2019-03-23T05:08:33.559Z,16.95
2019-03-23T05:11:30.023Z,16.52
2019-03-23T05:14:39.427Z,14.70
2019-03-23T05:17:24.627Z,17.57
2019-03-23T05:19:56.355Z,16.67
2019-03-23T05:22:27.011Z,15.88
2019-03-23T05:25:04.038Z,15.90
2019-03-23T05:27:38.167Z,15.72
2019-03-23T05:30:10.049Z,13.85
2019-03-23T05:32:42.464Z,16.17
2019-03-23T05:35:13.171Z,16.15
2019-03-23T05:37:44.111Z,16.85
2019-03-23T05:40:18.373Z,14.65
2019-03-23T05:42:50.568Z,15.18
2019-03-23T05:45:22.319Z,15.05
2019-03-23T05:47:54.682Z,15.63
2019-03-23T05:50:25.332Z,15.83
2019-03-23T05:52:57.442Z,15.15
2019-03-23T05:55:30.014Z,16.90
2019-03-23T05:58:36.937Z,17.57
2019-03-23T06:01:22.217Z,16.27
2019-03-23T06:04:24.284Z,15.60
2019-03-23T06:06:58.917Z,18.52
2019-03-23T06:09:30.725Z,16.95
2019-03-23T06:12:33.419Z,17.17
2019-03-23T06:15:35.897Z,16.10
2019-03-23T06:18:20.900Z,15.23
2019-03-23T06:20:51.639Z,13.35
2019-03-23T06:23:24.120Z,13.65
2019-03-23T06:25:55.467Z,15.72
2019-03-23T06:28:29.202Z,13.65
2019-03-23T06:31:02.754Z,15.18
2019-03-23T06:33:33.402Z,16.27
2019-03-23T06:36:04.050Z,15.93
2019-03-23T06:38:36.593Z,16.42
2019-03-23T06:41:09.733Z,16.48
2019-03-23T06:43:43.196Z,17.95
2019-03-23T06:46:13.854Z,17.40
2019-03-23T06:48:47.880Z,17.65
2019-03-23T06:51:18.830Z,18.07
2019-03-23T06:53:52.121Z,17.60
2019-03-23T06:56:24.912Z,20.02
2019-03-23T06:58:55.768Z,19.85
2019-03-23T07:01:28.212Z,21.73
2019-03-23T07:04:02.233Z,22.05
2019-03-23T07:06:35.157Z,19.45
2019-03-23T07:09:16.026Z,19.05
2019-03-23T07:11:42.435Z,23.12
2019-03-23T07:14:17.268Z,21.42
2019-03-23T07:16:48.315Z,22.62
2019-03-23T07:19:24.741Z,21.95
2019-03-23T07:21:57.041Z,19.00
2019-03-23T07:24:29.708Z,24.30
2019-03-23T07:27:01.479Z,23.07
2019-03-23T07:29:34.492Z,21.12
2019-03-23T07:32:06.260Z,25.85
2019-03-23T07:34:38.911Z,24.10
2019-03-23T07:37:12.030Z,22.37
2019-03-23T07:39:42.696Z,21.60
2019-03-23T07:42:15.620Z,24.45
2019-03-23T07:44:50.329Z,18.90
2019-03-23T07:47:26.286Z,18.80
2019-03-23T07:50:24.299Z,16.75
2019-03-23T07:53:15.040Z,17.17
2019-03-23T07:56:14.847Z,16.50
2019-03-23T07:59:28.109Z,18.55
2019-03-23T08:02:26.485Z,16.95
2019-03-23T08:05:38.287Z,16.32
2019-03-23T08:08:49.352Z,14.43
2019-03-23T08:11:17.897Z,15.32
2019-03-23T08:13:48.792Z,14.73
2019-03-23T08:16:30.012Z,15.30
2019-03-23T08:19:01.566Z,14.33
2019-03-23T08:21:32.458Z,13.88
2019-03-23T08:24:03.091Z,14.40
2019-03-23T08:26:33.803Z,15.80
2019-03-23T08:29:04.925Z,16.82
2019-03-23T08:31:35.579Z,15.35
2019-03-23T08:34:06.200Z,15.20
2019-03-23T08:36:36.844Z,14.58
2019-03-23T08:39:08.484Z,14.23
2019-03-23T08:41:39.902Z,13.35
2019-03-23T08:44:10.704Z,15.00
2019-03-23T08:46:46.325Z,16.42
2019-03-23T08:49:18.737Z,17.55
2019-03-23T08:51:51.049Z,16.85
2019-03-23T08:54:21.960Z,16.20
2019-03-23T08:56:54.552Z,15.28
2019-03-23T08:59:26.923Z,17.20
2019-03-23T09:01:59.960Z,16.05
2019-03-23T09:04:32.291Z,16.37
2019-03-23T09:07:21.685Z,17.65
2019-03-23T09:09:59.145Z,15.78
2019-03-23T09:12:24.684Z,15.00
2019-03-23T09:14:55.355Z,14.43
2019-03-23T09:17:26.658Z,17.20
2019-03-23T09:19:57.383Z,17.50
2019-03-23T09:22:54.835Z,18.10
2019-03-23T09:25:58.865Z,18.48
2019-03-23T09:28:33.558Z,18.90
2019-03-23T09:31:06.361Z,18.45
2019-03-23T09:33:38.126Z,17.12
2019-03-23T09:36:08.836Z,15.65
2019-03-23T09:38:42.348Z,19.02
2019-03-23T09:41:31.598Z,18.12
2019-03-23T09:44:35.003Z,20.08
2019-03-23T09:47:19.855Z,17.95
2019-03-23T09:50:18.495Z,18.07
2019-03-23T09:53:07.305Z,19.57
2019-03-23T09:56:08.017Z,20.80
2019-03-23T09:59:25.420Z,21.42
2019-03-23T10:02:28.975Z,22.90
2019-03-23T10:05:14.731Z,18.77
2019-03-23T10:08:46.327Z,17.92
2019-03-23T10:12:03.146Z,22.25
2019-03-23T10:15:03.179Z,19.27
2019-03-23T10:18:01.726Z,17.75
2019-03-23T10:20:58.243Z,18.40
2019-03-23T10:23:44.156Z,20.15
2019-03-23T10:26:16.987Z,19.95
2019-03-23T10:28:49.989Z,20.52
2019-03-23T10:31:21.963Z,19.30
2019-03-23T10:33:54.320Z,19.00
2019-03-23T10:36:28.570Z,19.25
2019-03-23T10:39:03.334Z,18.37
2019-03-23T10:41:42.379Z,19.32
2019-03-23T10:44:48.116Z,18.92
2019-03-23T10:47:40.115Z,18.73
2019-03-23T10:50:59.513Z,20.72
2019-03-23T10:54:04.145Z,18.65
2019-03-23T10:57:06.884Z,18.32
2019-03-23T10:59:37.629Z,17.70
2019-03-23T11:02:15.917Z,18.87
2019-03-23T11:05:07.810Z,19.80
2019-03-23T11:07:42.183Z,19.60
2019-03-23T11:10:14.539Z,21.62
2019-03-23T11:12:51.200Z,19.05
2019-03-23T11:15:23.919Z,20.02
2019-03-23T11:18:00.347Z,19.62
2019-03-23T11:20:33.624Z,19.73
2019-03-23T11:23:29.469Z,19.87
2019-03-23T11:26:02.881Z,21.00
2019-03-23T11:28:36.127Z,20.30
2019-03-23T11:31:06.848Z,18.00
2019-03-23T11:33:37.638Z,18.05
2019-03-23T11:36:10.000Z,18.87
2019-03-23T11:38:40.722Z,17.48
2019-03-23T11:41:11.527Z,17.60
2019-03-23T11:43:44.748Z,19.10
2019-03-23T11:46:19.248Z,18.95
2019-03-23T11:48:50.328Z,17.77
2019-03-23T11:51:35.036Z,18.35
2019-03-23T11:54:08.949Z,19.50
2019-03-23T11:56:42.107Z,18.65
2019-03-23T11:59:14.380Z,19.30
2019-03-23T12:01:51.654Z,19.07
2019-03-23T12:04:17.997Z,19.45
2019-03-23T12:06:49.677Z,19.15
2019-03-23T12:09:21.473Z,19.23
2019-03-23T12:11:56.082Z,20.25
2019-03-23T12:14:27.923Z,21.80
2019-03-23T12:17:00.627Z,19.95
2019-03-23T12:19:31.788Z,21.62
2019-03-23T12:22:07.324Z,19.25
2019-03-23T12:24:38.655Z,20.88
2019-03-23T12:27:10.317Z,23.18
2019-03-23T12:29:42.744Z,23.27
2019-03-23T12:32:15.139Z,21.30
2019-03-23T12:34:48.876Z,21.33
2019-03-23T12:37:21.147Z,20.62
2019-03-23T12:39:52.158Z,21.60
2019-03-23T12:42:23.550Z,22.15
2019-03-23T12:44:55.234Z,21.68
2019-03-23T12:47:27.971Z,23.35
2019-03-23T12:50:01.947Z,19.87
2019-03-23T12:52:35.509Z,19.10
2019-03-23T12:55:10.211Z,23.40
2019-03-23T12:57:43.984Z,25.15
2019-03-23T13:00:15.777Z,27.42
2019-03-23T13:02:47.380Z,24.27
2019-03-23T13:05:26.268Z,24.15
2019-03-23T13:07:56.980Z,24.50
2019-03-23T13:10:27.668Z,26.20
2019-03-23T13:13:00.780Z,26.65
2019-03-23T13:15:36.556Z,24.45
2019-03-23T13:18:07.381Z,26.57
2019-03-23T13:20:39.800Z,24.70
2019-03-23T13:23:12.766Z,23.92
2019-03-23T13:25:43.659Z,26.62
2019-03-23T13:28:14.367Z,26.68
2019-03-23T13:30:45.319Z,27.25
2019-03-23T13:33:53.459Z,27.75
2019-03-23T13:37:04.095Z,26.82
2019-03-23T13:39:52.410Z,24.65
2019-03-23T13:42:41.763Z,25.85
2019-03-23T13:45:42.938Z,26.57
2019-03-23T13:48:41.326Z,26.48
2019-03-23T13:51:23.192Z,29.42
2019-03-23T13:53:56.744Z,25.83
2019-03-23T13:56:27.973Z,26.83
2019-03-23T13:59:06.115Z,26.40
2019-03-23T14:01:38.344Z,26.77
2019-03-23T14:04:10.197Z,26.30
2019-03-23T14:06:42.593Z,26.30
2019-03-23T14:09:14.712Z,25.30
2019-03-23T14:11:54.845Z,26.63
2019-03-23T14:17:05.365Z,25.47
2019-03-23T14:19:37.123Z,24.33
2019-03-23T14:22:09.935Z,29.30
2019-03-23T14:25:07.512Z,24.80
2019-03-23T14:27:40.088Z,28.27
2019-03-23T14:30:17.193Z,25.97
2019-03-23T14:32:50.875Z,25.83
2019-03-23T14:35:22.266Z,25.13
2019-03-23T14:37:53.637Z,25.93
2019-03-23T14:40:24.283Z,30.65
2019-03-23T14:43:05.450Z,28.60
2019-03-23T14:45:37.056Z,28.93
2019-03-23T14:48:09.986Z,27.13
2019-03-23T14:50:42.647Z,27.83
2019-03-23T14:53:13.056Z,26.57
2019-03-23T14:55:47.249Z,26.70
2019-03-23T14:58:18.050Z,26.30
2019-03-23T15:00:48.643Z,25.20
2019-03-23T15:03:21.109Z,24.70
2019-03-23T15:05:51.716Z,27.07
2019-03-23T15:08:24.703Z,25.83
2019-03-23T15:10:55.368Z,24.90
2019-03-23T15:13:27.184Z,25.50
2019-03-23T15:15:57.832Z,24.97
2019-03-23T15:18:28.719Z,29.27
2019-03-23T15:20:59.409Z,28.30
2019-03-23T15:23:30.100Z,27.17
2019-03-23T15:26:01.210Z,24.97
2019-03-23T15:28:32.246Z,26.70
2019-03-23T15:31:02.982Z,25.77
2019-03-23T15:33:34.524Z,24.67
2019-03-23T15:36:28.930Z,27.10
2019-03-23T15:39:28.720Z,25.97
2019-03-23T15:42:34.852Z,27.10
2019-03-23T15:45:05.513Z,27.13
2019-03-23T15:47:36.271Z,25.67
2019-03-23T15:50:07.466Z,26.67
2019-03-23T15:52:38.109Z,27.80
2019-03-23T15:55:09.031Z,26.73
2019-03-23T15:57:39.710Z,24.97
2019-03-23T16:00:14.790Z,25.70
2019-03-23T16:02:47.323Z,25.50
2019-03-23T16:05:18.539Z,30.40
2019-03-23T16:07:49.915Z,24.77
2019-03-23T16:10:20.664Z,28.35
2019-03-23T16:12:51.368Z,23.60
2019-03-23T16:15:22.288Z,26.10
2019-03-23T16:17:55.984Z,25.82
2019-03-23T16:20:27.868Z,22.48
2019-03-23T16:22:58.740Z,25.20
2019-03-23T16:25:29.408Z,28.12
2019-03-23T16:28:19.145Z,24.10
2019-03-23T16:30:50.525Z,24.27
2019-03-23T16:33:21.661Z,24.10
2019-03-23T16:35:52.397Z,22.80
2019-03-23T16:38:23.128Z,23.50
2019-03-23T16:40:54.413Z,25.00
2019-03-23T16:43:28.567Z,22.15
2019-03-23T16:45:59.351Z,24.25
2019-03-23T16:48:33.310Z,23.25
2019-03-23T16:51:04.196Z,25.57
2019-03-23T16:53:34.981Z,23.83
2019-03-23T16:56:05.647Z,24.27
2019-03-23T16:58:36.434Z,25.43
2019-03-23T17:01:07.120Z,26.00
2019-03-23T17:03:42.503Z,25.68
2019-03-23T17:06:13.181Z,24.20
2019-03-23T17:08:43.958Z,26.15
2019-03-23T17:11:14.725Z,23.55
2019-03-23T17:13:47.770Z,24.60
2019-03-23T17:16:24.796Z,26.33
2019-03-23T17:18:57.663Z,23.27
2019-03-23T17:21:31.318Z,26.00
2019-03-23T17:24:04.261Z,24.12
2019-03-23T17:26:35.326Z,22.35
2019-03-23T17:29:07.847Z,26.75
2019-03-23T17:31:40.516Z,27.60
2019-03-23T17:34:11.284Z,28.45
2019-03-23T17:36:42.084Z,27.52
2019-03-23T17:39:12.752Z,19.92
2019-03-23T17:41:43.417Z,18.70
2019-03-23T17:44:14.447Z,17.92
2019-03-23T17:46:45.581Z,16.48
2019-03-23T17:49:16.265Z,16.77
2019-03-23T17:51:46.923Z,16.02
2019-03-23T17:54:18.000Z,15.20
2019-03-23T17:56:48.696Z,15.38
2019-03-23T17:59:20.456Z,13.08
2019-03-23T18:01:51.238Z,15.18
2019-03-23T18:04:21.905Z,14.03
2019-03-23T18:07:02.615Z,11.75
2019-03-23T18:09:31.631Z,14.20
2019-03-23T18:12:03.192Z,14.45
2019-03-23T18:14:36.443Z,15.55
2019-03-23T18:17:07.586Z,15.35
2019-03-23T18:19:39.329Z,14.73
2019-03-23T18:22:14.804Z,15.03
2019-03-23T18:24:46.866Z,13.85
2019-03-23T18:27:27.097Z,16.00
2019-03-23T18:30:04.536Z,15.78
2019-03-23T18:32:40.110Z,15.40
2019-03-23T18:35:11.178Z,14.10
2019-03-23T18:37:47.307Z,14.10
2019-03-23T18:40:18.643Z,13.30
2019-03-23T18:43:02.500Z,15.20
2019-03-23T18:45:37.822Z,15.15
2019-03-23T18:48:10.208Z,16.27
2019-03-23T18:50:43.004Z,16.77
2019-03-23T18:53:16.975Z,16.00
2019-03-23T18:55:47.787Z,13.88
2019-03-23T18:58:19.260Z,14.23
2019-03-23T19:00:50.824Z,13.03
2019-03-23T19:03:21.510Z,26.30
2019-03-23T19:05:53.371Z,17.12
2019-03-23T19:08:26.323Z,10.88
2019-03-23T19:10:59.990Z,11.12
2019-03-23T19:13:37.739Z,19.20
2019-03-23T19:16:05.156Z,12.23
2019-03-23T19:18:35.837Z,12.00
2019-03-23T19:21:08.160Z,11.85
2019-03-23T19:23:39.804Z,15.60
2019-03-23T19:26:11.374Z,13.95
2019-03-23T19:28:43.308Z,16.25
2019-03-23T19:31:13.950Z,16.02
2019-03-23T19:33:46.034Z,15.58
2019-03-23T19:36:19.832Z,15.68
2019-03-23T19:38:50.524Z,43.90
2019-03-23T19:41:21.291Z,37.95
2019-03-23T19:43:55.574Z,24.40
2019-03-23T19:46:45.443Z,12.45
2019-03-23T19:49:17.713Z,13.70
2019-03-23T19:51:48.494Z,14.35
2019-03-23T19:54:22.206Z,13.88
2019-03-23T19:57:34.022Z,15.00
2019-03-23T20:00:07.558Z,12.37
2019-03-23T20:02:39.153Z,14.00
2019-03-23T20:05:10.657Z,13.80
2019-03-23T20:07:43.389Z,12.55
2019-03-23T20:10:17.870Z,13.03
2019-03-23T20:12:52.742Z,12.60
2019-03-23T20:15:25.442Z,13.03
2019-03-23T20:17:56.172Z,13.30
2019-03-23T20:20:32.889Z,14.78
2019-03-23T20:25:43.791Z,14.58
2019-03-23T20:28:14.672Z,14.95
2019-03-23T20:30:46.619Z,14.25
2019-03-23T20:33:19.704Z,14.65
2019-03-23T20:35:50.845Z,14.43
2019-03-23T20:38:22.267Z,16.57
2019-03-23T20:40:53.397Z,16.23
2019-03-23T20:43:24.048Z,15.88
2019-03-23T20:45:54.823Z,16.40
2019-03-23T20:48:27.518Z,16.77
2019-03-23T20:51:00.688Z,19.90
2019-03-23T20:53:33.098Z,16.57
2019-03-23T20:56:04.399Z,16.90
2019-03-23T20:58:35.081Z,17.50
2019-03-23T21:01:05.971Z,16.00
2019-03-23T21:03:37.704Z,15.95
2019-03-23T21:06:15.204Z,17.02
2019-03-23T21:08:50.030Z,18.25
2019-03-23T21:11:52.555Z,13.78
2019-03-23T21:15:03.912Z,15.88
2019-03-23T21:17:50.466Z,16.32
2019-03-23T21:20:15.181Z,17.25
2019-03-23T21:22:48.117Z,15.85
2019-03-23T21:25:21.069Z,16.82
2019-03-23T21:27:53.648Z,17.00
2019-03-23T21:30:25.618Z,15.75
2019-03-23T21:33:31.782Z,15.78
2019-03-23T21:36:00.288Z,17.50
2019-03-23T21:38:32.076Z,15.60
2019-03-23T21:41:13.727Z,15.55
2019-03-23T21:44:04.545Z,17.90
2019-03-23T21:46:49.022Z,17.52
2019-03-23T21:49:19.673Z,18.00
2019-03-23T21:51:56.790Z,17.87
2019-03-23T21:54:29.600Z,16.60
2019-03-23T21:57:01.123Z,16.73
2019-03-23T21:59:31.776Z,17.50
2019-03-23T22:02:04.769Z,15.45
2019-03-23T22:04:35.576Z,16.25
2019-03-23T22:07:06.457Z,17.02
2019-03-23T22:09:37.487Z,18.00
2019-03-23T22:12:09.507Z,15.83
2019-03-23T22:14:42.323Z,16.50
2019-03-23T22:17:13.010Z,18.50
2019-03-23T22:19:45.996Z,17.17
2019-03-23T22:24:59.885Z,17.77
2019-03-23T22:27:31.718Z,17.20
2019-03-23T22:30:07.503Z,17.60
2019-03-23T22:32:41.083Z,19.02
2019-03-23T22:35:14.148Z,21.07
2019-03-23T22:37:46.640Z,20.48
2019-03-23T22:41:12.043Z,16.95
2019-03-23T22:47:22.898Z,19.92
2019-03-23T22:49:52.135Z,18.17
2019-03-23T22:52:24.542Z,18.35
2019-03-23T22:54:55.208Z,19.98
2019-03-23T22:57:28.376Z,17.98
2019-03-23T23:00:01.742Z,20.52
2019-03-23T23:02:35.675Z,21.55
2019-03-23T23:05:09.284Z,20.43
2019-03-23T23:07:41.105Z,18.73
2019-03-23T23:10:11.694Z,21.48
2019-03-23T23:12:43.541Z,21.50
2019-03-23T23:15:15.992Z,22.10
2019-03-23T23:17:46.919Z,23.27
2019-03-23T23:20:19.781Z,20.15
2019-03-23T23:25:28.114Z,23.07
2019-03-23T23:28:02.415Z,22.62
2019-03-23T23:30:39.299Z,20.90
2019-03-23T23:33:11.255Z,21.80
2019-03-23T23:35:44.531Z,21.77
2019-03-23T23:38:15.209Z,20.85
2019-03-23T23:40:46.701Z,19.35
2019-03-23T23:43:17.622Z,21.40
2019-03-23T23:45:48.458Z,24.50
2019-03-23T23:48:19.604Z,23.20
2019-03-23T23:50:51.848Z,23.80
2019-03-23T23:53:24.472Z,24.72
2019-03-23T23:56:31.425Z,26.97
2019-03-23T23:59:38.196Z,24.18
